createdAt,value
2022-11-20T00:01:32.089Z,97144.78
2022-11-20T00:04:00.707Z,97143.38
2022-11-20T00:06:30.510Z,97137.69
2022-11-20T00:09:02.448Z,97139.50
2022-11-20T00:11:32.386Z,97141.69
2022-11-20T00:14:02.806Z,97140.91
2022-11-20T00:16:33.224Z,97147.97
2022-11-20T00:19:01.802Z,97143.41
2022-11-20T00:21:31.260Z,97144.44
2022-11-20T00:24:01.163Z,97139.72
2022-11-20T00:26:30.412Z,97146.91
2022-11-20T00:29:00.780Z,97150.47
2022-11-20T00:31:30.362Z,97147.28
2022-11-20T00:33:58.957Z,97152.53
2022-11-20T00:36:30.044Z,97151.06
2022-11-20T00:39:00.705Z,97157.19
2022-11-20T00:41:31.688Z,97154.13
2022-11-20T00:44:00.380Z,97155.00
2022-11-20T00:46:30.072Z,97153.53
2022-11-20T00:48:58.829Z,97156.28
2022-11-20T00:51:28.845Z,97160.00
2022-11-20T00:53:57.614Z,97154.34
2022-11-20T00:56:27.340Z,97163.09
2022-11-20T00:58:55.795Z,97159.13
2022-11-20T01:01:26.153Z,97154.31
2022-11-20T01:03:56.555Z,97161.97
2022-11-20T01:06:26.954Z,97156.16
2022-11-20T01:08:56.901Z,97161.44
2022-11-20T01:11:28.076Z,97163.28
2022-11-20T01:13:57.587Z,97160.56
2022-11-20T01:16:28.463Z,97155.50
2022-11-20T01:18:59.031Z,97158.81
2022-11-20T01:21:30.517Z,97158.03
2022-11-20T01:23:59.587Z,97160.59
2022-11-20T01:26:32.010Z,97169.13
2022-11-20T01:29:01.434Z,97173.34
2022-11-20T01:31:32.362Z,97175.28
2022-11-20T01:34:03.346Z,97175.34
2022-11-20T01:36:34.213Z,97179.69
2022-11-20T01:39:06.067Z,97175.47
2022-11-20T01:41:53.750Z,97174.81
2022-11-20T01:44:24.348Z,97174.94
2022-11-20T01:46:58.944Z,97172.44
2022-11-20T01:49:34.749Z,97175.16
2022-11-20T01:52:07.009Z,97172.03
2022-11-20T01:54:39.439Z,97173.56
2022-11-20T01:57:12.440Z,97175.16
2022-11-20T01:59:45.341Z,97170.81
2022-11-20T02:02:14.083Z,97172.28
2022-11-20T02:04:42.780Z,97171.44
2022-11-20T02:07:11.604Z,97173.28
2022-11-20T02:09:40.098Z,97168.72
2022-11-20T02:12:30.582Z,97178.75
2022-11-20T02:14:58.669Z,97173.75
2022-11-20T02:17:27.510Z,97175.44
2022-11-20T02:19:56.037Z,97174.66
2022-11-20T02:22:30.168Z,97175.47
2022-11-20T02:25:03.305Z,97172.91
2022-11-20T02:27:31.952Z,97173.03
2022-11-20T02:30:03.837Z,97169.81
2022-11-20T02:32:34.833Z,97179.00
2022-11-20T02:35:09.399Z,97174.81
2022-11-20T02:37:41.022Z,97177.53
2022-11-20T02:40:12.255Z,97177.72
2022-11-20T02:42:40.870Z,97179.63
2022-11-20T02:45:10.844Z,97172.75
2022-11-20T02:47:39.406Z,97174.50
2022-11-20T02:50:08.259Z,97164.53
2022-11-20T02:52:36.796Z,97169.53
2022-11-20T02:55:06.072Z,97168.69
2022-11-20T02:57:36.111Z,97172.50
2022-11-20T03:00:05.939Z,97160.78
2022-11-20T03:02:35.119Z,97177.88
2022-11-20T03:05:03.770Z,97161.97
2022-11-20T03:07:32.241Z,97176.34
2022-11-20T03:10:00.774Z,97170.50
2022-11-20T03:12:29.262Z,97176.34
2022-11-20T03:14:59.138Z,97167.78
2022-11-20T03:17:27.728Z,97176.19
2022-11-20T03:19:56.220Z,97179.59
2022-11-20T03:22:24.675Z,97169.38
2022-11-20T03:24:53.176Z,97174.56
2022-11-20T03:27:21.664Z,97160.88
2022-11-20T03:29:50.168Z,97166.72
2022-11-20T03:32:20.048Z,97167.44
2022-11-20T03:34:48.544Z,97166.59
2022-11-20T03:37:17.079Z,97170.78
2022-11-20T03:39:45.613Z,97179.19
2022-11-20T03:42:28.060Z,97182.47
2022-11-20T03:44:56.704Z,97172.25
2022-11-20T03:47:26.507Z,97180.69
2022-11-20T03:49:55.535Z,97174.69
2022-11-20T03:52:23.967Z,97172.91
2022-11-20T03:54:52.477Z,97173.59
2022-11-20T03:57:20.888Z,97176.22
2022-11-20T03:59:49.403Z,97180.25
2022-11-20T04:02:18.216Z,97171.72
2022-11-20T04:04:48.095Z,97169.94
2022-11-20T04:07:16.613Z,97168.28
2022-11-20T04:09:45.184Z,97173.88
2022-11-20T04:12:13.624Z,97172.88
2022-11-20T04:14:42.164Z,97173.75
2022-11-20T04:17:10.604Z,97173.81
2022-11-20T04:19:39.068Z,97165.38
2022-11-20T04:22:09.583Z,97162.06
2022-11-20T04:24:38.074Z,97155.88
2022-11-20T04:27:06.562Z,97155.88
2022-11-20T04:29:35.103Z,97151.31
2022-11-20T04:32:03.588Z,97154.63
2022-11-20T04:34:32.088Z,97155.47
2022-11-20T04:37:01.190Z,97152.06
2022-11-20T04:39:31.073Z,97152.94
2022-11-20T04:42:13.500Z,97145.13
2022-11-20T04:44:41.822Z,97149.88
2022-11-20T04:47:10.435Z,97145.25
2022-11-20T04:49:38.940Z,97149.25
2022-11-20T04:52:07.447Z,97150.72
2022-11-20T04:54:37.229Z,97148.16
2022-11-20T04:57:09.998Z,97152.31
2022-11-20T04:59:41.486Z,97148.06
2022-11-20T05:02:10.642Z,97149.06
2022-11-20T05:04:39.158Z,97138.88
2022-11-20T05:07:07.707Z,97142.09
2022-11-20T05:09:37.607Z,97142.19
2022-11-20T05:12:06.614Z,97148.84
2022-11-20T05:14:35.039Z,97142.69
2022-11-20T05:17:03.594Z,97148.09
2022-11-20T05:19:32.146Z,97142.03
2022-11-20T05:22:00.660Z,97139.25
2022-11-20T05:24:29.137Z,97145.81
2022-11-20T05:26:58.947Z,97140.50
2022-11-20T05:29:27.383Z,97141.38
2022-11-20T05:31:55.851Z,97141.38
2022-11-20T05:34:24.383Z,97145.69
2022-11-20T05:36:52.903Z,97135.41
2022-11-20T05:39:21.821Z,97138.47
2022-11-20T05:42:10.542Z,97132.69
2022-11-20T05:44:40.399Z,97136.00
2022-11-20T05:47:08.972Z,97140.38
2022-11-20T05:49:37.430Z,97136.72
2022-11-20T05:52:05.961Z,97127.59
2022-11-20T05:54:34.545Z,97137.47
2022-11-20T05:57:03.249Z,97133.34
2022-11-20T05:59:31.765Z,97141.81
2022-11-20T06:02:01.644Z,97146.13
2022-11-20T06:04:30.120Z,97138.25
2022-11-20T06:06:58.655Z,97140.03
2022-11-20T06:09:27.168Z,97142.59
2022-11-20T06:11:55.737Z,97143.34
2022-11-20T06:14:24.224Z,97148.97
2022-11-20T06:16:52.773Z,97143.84
2022-11-20T06:19:22.917Z,97145.72
2022-11-20T06:21:51.678Z,97139.78
2022-11-20T06:24:20.224Z,97150.06
2022-11-20T06:26:48.760Z,97146.56
2022-11-20T06:29:17.363Z,97148.03
2022-11-20T06:31:45.787Z,97146.81
2022-11-20T06:34:14.249Z,97151.84
2022-11-20T06:36:44.122Z,97150.06
2022-11-20T06:39:12.942Z,97155.84
2022-11-20T06:41:41.390Z,97153.44
2022-11-20T06:44:09.824Z,97154.91
2022-11-20T06:46:38.259Z,97155.78
2022-11-20T06:49:06.991Z,97151.50
2022-11-20T06:51:35.459Z,97155.59
2022-11-20T06:54:05.652Z,97161.63
2022-11-20T06:56:34.180Z,97161.66
2022-11-20T06:59:06.265Z,97160.97
2022-11-20T07:01:35.919Z,97154.75
2022-11-20T07:04:04.819Z,97160.50
2022-11-20T07:06:33.383Z,97164.72
2022-11-20T07:09:02.532Z,97165.63
2022-11-20T07:11:32.404Z,97171.59
2022-11-20T07:14:00.878Z,97166.25
2022-11-20T07:16:29.336Z,97167.91
2022-11-20T07:18:57.826Z,97169.63
2022-11-20T07:21:26.333Z,97166.25
2022-11-20T07:23:54.908Z,97168.72
2022-11-20T07:26:23.447Z,97171.25
2022-11-20T07:28:53.284Z,97174.28
2022-11-20T07:31:21.812Z,97166.88
2022-11-20T07:33:50.324Z,97169.28
2022-11-20T07:36:18.845Z,97165.09
2022-11-20T07:38:47.331Z,97167.41
2022-11-20T07:41:16.736Z,97177.50
2022-11-20T07:43:45.254Z,97172.09
2022-11-20T07:46:15.163Z,97184.13
2022-11-20T07:48:43.706Z,97180.75
2022-11-20T07:51:12.260Z,97184.28
2022-11-20T07:53:40.737Z,97172.31
2022-11-20T07:56:09.653Z,97179.63
2022-11-20T07:58:38.187Z,97181.38
2022-11-20T08:01:07.942Z,97178.75
2022-11-20T08:03:39.511Z,97185.31
2022-11-20T08:06:08.938Z,97180.84
2022-11-20T08:08:42.418Z,97185.88
2022-11-20T08:11:29.282Z,97179.84
2022-11-20T08:14:16.647Z,97183.25
2022-11-20T08:16:46.850Z,97181.38
2022-11-20T08:19:18.244Z,97177.78
2022-11-20T08:21:47.127Z,97180.25
2022-11-20T08:24:15.690Z,97173.31
2022-11-20T08:26:44.165Z,97175.84
2022-11-20T08:29:12.677Z,97183.94
2022-11-20T08:31:41.193Z,97181.97
2022-11-20T08:34:11.330Z,97185.84
2022-11-20T08:36:42.687Z,97174.63
2022-11-20T08:39:14.195Z,97172.88
2022-11-20T08:41:42.626Z,97183.00
2022-11-20T08:44:11.025Z,97190.88
2022-11-20T08:46:41.958Z,97191.66
2022-11-20T08:49:12.272Z,97184.13
2022-11-20T08:51:43.059Z,97185.75
2022-11-20T08:54:11.745Z,97186.06
2022-11-20T08:56:40.151Z,97182.59
2022-11-20T08:59:43.803Z,97187.66
2022-11-20T09:01:57.038Z,97193.53
2022-11-20T09:04:25.547Z,97191.03
2022-11-20T09:06:55.849Z,97193.59
2022-11-20T09:09:24.695Z,97190.97
2022-11-20T09:11:53.571Z,97190.75
2022-11-20T09:14:22.268Z,97184.50
2022-11-20T09:16:50.792Z,97191.44
2022-11-20T09:19:36.138Z,97206.13
2022-11-20T09:22:06.568Z,97201.53
2022-11-20T09:24:34.973Z,97200.84
2022-11-20T09:27:05.360Z,97188.72
2022-11-20T09:29:33.975Z,97198.22
2022-11-20T09:32:02.560Z,97198.22
2022-11-20T09:34:31.167Z,97202.56
2022-11-20T09:37:02.954Z,97207.84
2022-11-20T09:39:39.632Z,97205.22
2022-11-20T09:42:31.016Z,97207.03
2022-11-20T09:45:18.338Z,97204.38
2022-11-20T09:48:12.967Z,97198.28
2022-11-20T09:50:48.769Z,97206.81
2022-11-20T09:53:27.335Z,97206.66
2022-11-20T09:55:58.525Z,97203.50
2022-11-20T09:58:33.561Z,97209.47
2022-11-20T10:01:14.126Z,97214.59
2022-11-20T10:03:56.052Z,97219.63
2022-11-20T10:06:31.839Z,97224.47
2022-11-20T10:09:17.187Z,97218.44
2022-11-20T10:11:53.887Z,97216.91
2022-11-20T10:14:33.384Z,97219.41
2022-11-20T10:17:12.428Z,97212.78
2022-11-20T10:19:54.137Z,97214.72
2022-11-20T10:22:37.460Z,97214.59
2022-11-20T10:25:12.924Z,97215.53
2022-11-20T10:28:08.126Z,97219.00
2022-11-20T10:30:41.550Z,97214.03
2022-11-20T10:33:18.088Z,97221.03
2022-11-20T10:35:51.436Z,97213.47
2022-11-20T10:38:23.972Z,97208.13
2022-11-20T10:41:18.460Z,97211.47
2022-11-20T10:43:49.884Z,97216.50
2022-11-20T10:46:20.823Z,97204.38
2022-11-20T10:48:50.685Z,97212.91
2022-11-20T10:51:33.153Z,97205.22
2022-11-20T10:54:15.480Z,97202.19
2022-11-20T10:56:50.369Z,97202.19
2022-11-20T10:59:49.320Z,97201.38
2022-11-20T11:02:20.690Z,97197.28
2022-11-20T11:04:51.170Z,97202.47
2022-11-20T11:07:23.446Z,97197.41
2022-11-20T11:09:54.925Z,97183.09
2022-11-20T11:12:25.584Z,97194.28
2022-11-20T11:14:57.028Z,97199.00
2022-11-20T11:17:30.682Z,97195.28
2022-11-20T11:20:04.603Z,97203.16
2022-11-20T11:22:35.409Z,97207.69
2022-11-20T11:25:04.789Z,97212.31
2022-11-20T11:27:33.247Z,97203.59
2022-11-20T11:30:16.973Z,97205.22
2022-11-20T11:32:46.090Z,97201.91
2022-11-20T11:35:23.749Z,97201.91
2022-11-20T11:37:55.204Z,97200.53
2022-11-20T11:40:27.947Z,97195.34
2022-11-20T11:43:06.368Z,97195.34
2022-11-20T11:45:35.310Z,97195.72
2022-11-20T11:48:06.108Z,97193.03
2022-11-20T11:50:35.388Z,97198.22
2022-11-20T11:53:11.508Z,97182.78
2022-11-20T11:55:45.069Z,97180.50
2022-11-20T11:58:19.763Z,97178.56
2022-11-20T12:00:56.875Z,97180.81
2022-11-20T12:03:42.820Z,97173.34
2022-11-20T12:06:15.520Z,97163.81
2022-11-20T12:08:50.418Z,97167.75
2022-11-20T12:11:25.236Z,97165.78
2022-11-20T12:14:02.710Z,97163.44
2022-11-20T12:16:37.339Z,97169.03
2022-11-20T12:19:12.107Z,97156.88
2022-11-20T12:21:51.300Z,97162.09
2022-11-20T12:24:39.369Z,97160.81
2022-11-20T12:27:28.605Z,97152.38
2022-11-20T12:30:03.522Z,97151.03
2022-11-20T12:32:55.083Z,97142.28
2022-11-20T12:35:39.882Z,97153.00
2022-11-20T12:38:51.989Z,97140.94
2022-11-20T12:41:52.348Z,97143.13
2022-11-20T12:45:05.805Z,97135.66
2022-11-20T12:48:05.452Z,97137.94
2022-11-20T12:51:08.170Z,97137.91
2022-11-20T12:53:44.596Z,97132.72
2022-11-20T12:56:31.394Z,97141.09
2022-11-20T12:59:29.877Z,97136.94
2022-11-20T13:02:11.770Z,97131.38
2022-11-20T13:05:08.323Z,97129.47
2022-11-20T13:07:38.812Z,97130.13
2022-11-20T13:10:21.276Z,97137.63
2022-11-20T13:13:01.977Z,97124.66
2022-11-20T13:15:42.703Z,97127.00
2022-11-20T13:18:14.144Z,97124.13
2022-11-20T13:20:51.101Z,97128.22
2022-11-20T13:23:28.640Z,97133.25
2022-11-20T13:26:17.077Z,97133.47
2022-11-20T13:28:49.194Z,97116.38
2022-11-20T13:31:33.628Z,97117.97
2022-11-20T13:34:06.455Z,97119.78
2022-11-20T13:36:38.017Z,97119.81
2022-11-20T13:39:08.157Z,97114.47
2022-11-20T13:41:41.435Z,97120.25
2022-11-20T13:44:25.486Z,97127.09
2022-11-20T13:46:55.677Z,97127.09
2022-11-20T13:49:32.682Z,97122.72
2022-11-20T13:52:29.512Z,97126.13
2022-11-20T13:55:12.781Z,97125.19
2022-11-20T13:58:02.050Z,97119.53
2022-11-20T14:00:33.940Z,97115.16
2022-11-20T14:03:16.115Z,97123.59
2022-11-20T14:05:53.988Z,97112.00
2022-11-20T14:08:41.516Z,97109.22
2022-11-20T14:11:18.347Z,97108.53
2022-11-20T14:14:01.089Z,97111.25
2022-11-20T14:16:31.702Z,97109.72
2022-11-20T14:19:27.583Z,97114.09
2022-11-20T14:22:14.126Z,97102.06
2022-11-20T14:24:49.960Z,97101.00
2022-11-20T14:27:27.187Z,97112.75
2022-11-20T14:30:10.156Z,97099.66
2022-11-20T14:32:52.570Z,97102.88
2022-11-20T14:35:39.747Z,97092.25
2022-11-20T14:38:19.883Z,97085.94
2022-11-20T14:40:52.994Z,97079.00
2022-11-20T14:43:26.205Z,97085.63
2022-11-20T14:46:01.353Z,97083.06
2022-11-20T14:48:35.192Z,97087.50
2022-11-20T14:51:04.230Z,97077.53
2022-11-20T14:53:32.967Z,97080.56
2022-11-20T14:56:04.199Z,97083.44
2022-11-20T14:58:34.228Z,97079.59
2022-11-20T15:01:08.167Z,97088.41
2022-11-20T15:03:43.620Z,97089.53
2022-11-20T15:06:19.365Z,97086.50
2022-11-20T15:09:01.405Z,97080.78
2022-11-20T15:11:39.034Z,97074.00
2022-11-20T15:14:12.672Z,97078.50
2022-11-20T15:16:47.362Z,97074.66
2022-11-20T15:19:26.321Z,97074.19
2022-11-20T15:22:00.553Z,97068.59
2022-11-20T15:24:48.712Z,97060.59
2022-11-20T15:27:27.245Z,97052.31
2022-11-20T15:29:58.695Z,97057.81
2022-11-20T15:32:39.294Z,97055.53
2022-11-20T15:35:15.683Z,97052.13
2022-11-20T15:37:48.656Z,97055.59
2022-11-20T15:40:17.325Z,97048.81
2022-11-20T15:43:01.059Z,97046.22
2022-11-20T15:45:31.946Z,97043.16
2022-11-20T15:48:00.750Z,97048.47
2022-11-20T15:50:35.213Z,97046.75
2022-11-20T15:53:03.763Z,97045.94
2022-11-20T15:55:32.788Z,97042.81
2022-11-20T15:58:02.586Z,97041.28
2022-11-20T16:00:31.216Z,97032.16
2022-11-20T16:03:00.022Z,97034.16
2022-11-20T16:05:30.581Z,97032.78
2022-11-20T16:07:59.229Z,97040.72
2022-11-20T16:10:27.743Z,97045.50
2022-11-20T16:13:13.764Z,97037.09
2022-11-20T16:15:49.830Z,97035.78
2022-11-20T16:18:21.019Z,97036.69
2022-11-20T16:20:51.358Z,97035.16
2022-11-20T16:23:21.236Z,97041.94
2022-11-20T16:25:50.296Z,97042.06
2022-11-20T16:28:20.537Z,97042.97
2022-11-20T16:30:50.520Z,97037.16
2022-11-20T16:33:19.442Z,97040.84
2022-11-20T16:35:48.075Z,97036.00
2022-11-20T16:38:16.765Z,97042.13
2022-11-20T16:40:45.351Z,97038.94
2022-11-20T16:43:16.014Z,97036.88
2022-11-20T16:45:46.313Z,97032.56
2022-11-20T16:48:18.213Z,97030.94
2022-11-20T16:50:49.648Z,97033.75
2022-11-20T16:53:18.877Z,97021.88
2022-11-20T16:55:47.750Z,97021.88
2022-11-20T16:58:16.509Z,97016.91
2022-11-20T17:00:51.117Z,97013.41
2022-11-20T17:03:22.049Z,97002.25
2022-11-20T17:05:50.559Z,97009.13
2022-11-20T17:08:19.070Z,97003.19
2022-11-20T17:10:47.802Z,97006.81
2022-11-20T17:13:16.362Z,97008.69
2022-11-20T17:15:44.840Z,97001.72
2022-11-20T17:18:13.346Z,96999.22
2022-11-20T17:20:43.164Z,97006.13
2022-11-20T17:23:11.617Z,96997.78
2022-11-20T17:25:40.149Z,96996.41
2022-11-20T17:28:08.746Z,96994.63
2022-11-20T17:30:37.270Z,96989.53
2022-11-20T17:33:05.764Z,96998.97
2022-11-20T17:35:37.193Z,97004.00
2022-11-20T17:38:07.005Z,97000.69
2022-11-20T17:40:35.676Z,96990.53
2022-11-20T17:43:04.209Z,96997.34
2022-11-20T17:45:32.900Z,96993.09
2022-11-20T17:48:01.370Z,96990.47
2022-11-20T17:50:29.942Z,96984.06
2022-11-20T17:52:58.643Z,96980.03
2022-11-20T17:55:51.465Z,96982.59
2022-11-20T17:58:23.013Z,96983.44
2022-11-20T18:00:51.535Z,96969.84
2022-11-20T18:03:20.028Z,96975.19
2022-11-20T18:05:48.451Z,96961.34
2022-11-20T18:08:17.296Z,96957.41
2022-11-20T18:10:47.055Z,96958.94
2022-11-20T18:13:15.531Z,96955.56
2022-11-20T18:15:44.123Z,96952.91
2022-11-20T18:18:12.749Z,96941.00
2022-11-20T18:20:41.292Z,96935.91
2022-11-20T18:23:09.824Z,96930.13
2022-11-20T18:25:38.840Z,96936.81
2022-11-20T18:28:08.620Z,96936.69
2022-11-20T18:30:37.418Z,96939.22
2022-11-20T18:33:06.377Z,96935.72
2022-11-20T18:35:35.035Z,96932.41
2022-11-20T18:38:03.547Z,96932.28
2022-11-20T18:40:32.218Z,96933.13
2022-11-20T18:43:18.244Z,96930.56
2022-11-20T18:45:48.125Z,96920.19
2022-11-20T18:48:16.596Z,96921.06
2022-11-20T18:50:45.006Z,96916.78
2022-11-20T18:53:13.493Z,96927.00
2022-11-20T18:55:41.968Z,96929.28
2022-11-20T18:58:10.572Z,96932.53
2022-11-20T19:00:39.047Z,96928.13
2022-11-20T19:03:09.239Z,96932.38
2022-11-20T19:05:38.420Z,96921.31
2022-11-20T19:08:06.940Z,96921.47
2022-11-20T19:10:37.533Z,96917.88
2022-11-20T19:13:06.335Z,96914.31
2022-11-20T19:15:36.054Z,96905.16
2022-11-20T19:18:04.739Z,96899.94
2022-11-20T19:20:35.001Z,96902.28
2022-11-20T19:23:03.494Z,96895.25
2022-11-20T19:25:37.726Z,96899.25
2022-11-20T19:28:06.860Z,96914.75
2022-11-20T19:30:35.435Z,96913.66
2022-11-20T19:33:04.004Z,96922.09
2022-11-20T19:35:33.812Z,96921.13
2022-11-20T19:38:05.602Z,96920.03
2022-11-20T19:40:34.319Z,96921.25
2022-11-20T19:43:03.025Z,96920.41
2022-11-20T19:45:31.983Z,96927.75
2022-11-20T19:48:07.650Z,96920.16
2022-11-20T19:50:37.900Z,96921.38
2022-11-20T19:53:07.429Z,96912.75
2022-11-20T19:55:36.103Z,96924.00
2022-11-20T19:58:04.965Z,96924.78
2022-11-20T20:00:33.504Z,96915.44
2022-11-20T20:03:02.166Z,96910.22
2022-11-20T20:05:30.724Z,96900.25
2022-11-20T20:08:00.577Z,96896.19
2022-11-20T20:10:29.334Z,96888.72
2022-11-20T20:12:58.230Z,96890.56
2022-11-20T20:15:26.854Z,96887.34
2022-11-20T20:17:55.545Z,96889.06
2022-11-20T20:20:24.654Z,96882.16
2022-11-20T20:22:53.102Z,96881.31
2022-11-20T20:25:22.896Z,96881.97
2022-11-20T20:27:51.406Z,96877.66
2022-11-20T20:30:20.035Z,96873.47
2022-11-20T20:32:53.295Z,96873.66
2022-11-20T20:35:24.520Z,96876.13
2022-11-20T20:37:52.990Z,96871.19
2022-11-20T20:40:22.920Z,96871.09
2022-11-20T20:42:51.388Z,96868.47
2022-11-20T20:45:19.865Z,96876.13
2022-11-20T20:47:48.561Z,96871.09
2022-11-20T20:50:16.994Z,96873.47
2022-11-20T20:52:45.730Z,96865.91
2022-11-20T20:55:14.396Z,96871.03
2022-11-20T20:57:44.313Z,96870.25
2022-11-20T21:00:13.259Z,96865.03
2022-11-20T21:02:41.699Z,96871.75
2022-11-20T21:05:10.989Z,96865.66
2022-11-20T21:07:59.538Z,96862.28
2022-11-20T21:10:28.007Z,96869.88
2022-11-20T21:12:57.972Z,96858.44
2022-11-20T21:15:26.574Z,96864.00
2022-11-20T21:17:55.022Z,96865.41
2022-11-20T21:20:40.936Z,96860.41
2022-11-20T21:23:11.044Z,96860.56
2022-11-20T21:25:40.771Z,96858.50
2022-11-20T21:28:14.399Z,96862.75
2022-11-20T21:30:47.108Z,96867.88
2022-11-20T21:33:15.898Z,96862.69
2022-11-20T21:35:44.320Z,96863.69
2022-11-20T21:38:12.852Z,96864.28
2022-11-20T21:40:41.335Z,96861.13
2022-11-20T21:43:11.133Z,96864.16
2022-11-20T21:45:39.567Z,96857.56
2022-11-20T21:48:08.025Z,96850.75
2022-11-20T21:50:36.523Z,96861.03
2022-11-20T21:53:04.975Z,96865.41
2022-11-20T21:55:33.502Z,96859.31
2022-11-20T21:58:02.006Z,96852.28
2022-11-20T22:00:31.846Z,96856.50
2022-11-20T22:03:00.300Z,96859.84
2022-11-20T22:05:28.760Z,96874.06
2022-11-20T22:07:57.226Z,96875.88
2022-11-20T22:10:27.994Z,96875.13
2022-11-20T22:13:17.040Z,96886.59
2022-11-20T22:16:00.320Z,96870.34
2022-11-20T22:18:29.754Z,96880.56
2022-11-20T22:20:58.375Z,96878.78
2022-11-20T22:23:26.807Z,96879.69
2022-11-20T22:25:55.252Z,96881.47
2022-11-20T22:28:23.784Z,96896.19
2022-11-20T22:30:53.654Z,96880.81
2022-11-20T22:33:22.126Z,96885.91
2022-11-20T22:35:50.572Z,96878.28
2022-11-20T22:38:19.069Z,96886.03
2022-11-20T22:40:48.565Z,96894.03
2022-11-20T22:43:17.007Z,96904.25
2022-11-20T22:45:46.383Z,96894.72
2022-11-20T22:48:16.218Z,96884.84
2022-11-20T22:50:45.159Z,96892.38
2022-11-20T22:53:13.631Z,96900.00
2022-11-20T22:55:42.121Z,96903.16
2022-11-20T22:58:10.657Z,96886.19
2022-11-20T23:00:39.120Z,96892.81
2022-11-20T23:03:07.740Z,96894.66
2022-11-20T23:05:37.612Z,96896.19
2022-11-20T23:08:06.420Z,96902.88
2022-11-20T23:10:34.901Z,96891.78
2022-11-20T23:13:03.417Z,96895.78
2022-11-20T23:15:34.410Z,96893.22
2022-11-20T23:18:02.847Z,96910.34
2022-11-20T23:20:31.294Z,96905.38
2022-11-20T23:23:01.088Z,96912.84
2022-11-20T23:25:29.658Z,96914.63
2022-11-20T23:27:58.158Z,96906.84
2022-11-20T23:30:26.655Z,96914.63
2022-11-20T23:32:55.285Z,96908.75
2022-11-20T23:35:24.031Z,96898.72
2022-11-20T23:37:52.487Z,96914.91
2022-11-20T23:40:22.293Z,96907.38
2022-11-20T23:43:08.241Z,96899.66
2022-11-20T23:45:40.411Z,96907.50
2022-11-20T23:48:08.934Z,96914.41
2022-11-20T23:50:37.649Z,96911.00
2022-11-20T23:53:06.758Z,96906.13
2022-11-20T23:55:37.172Z,96913.72
2022-11-20T23:58:05.771Z,96907.78
